createdAt,value
2023-04-17T00:03:51.458Z,101623.38
2023-04-17T00:08:55.174Z,101620.38
2023-04-17T00:14:00.511Z,101608.31
2023-04-17T00:19:04.183Z,101609.78
2023-04-17T00:24:08.465Z,101608.38
2023-04-17T00:29:13.925Z,101588.72
2023-04-17T00:34:17.601Z,101590.03
2023-04-17T00:39:21.267Z,101592.78
2023-04-17T00:44:26.631Z,101581.31
2023-04-17T00:49:30.875Z,101579.28
2023-04-17T00:54:34.750Z,101570.41
2023-04-17T00:59:40.822Z,101565.16
2023-04-17T01:04:44.520Z,101559.47
2023-04-17T01:09:48.143Z,101563.31
2023-04-17T01:14:53.615Z,101568.50
2023-04-17T01:19:57.917Z,101559.28
2023-04-17T01:25:03.192Z,101562.69
2023-04-17T01:30:07.865Z,101558.06
2023-04-17T01:35:11.943Z,101563.50
2023-04-17T01:40:17.410Z,101550.53
2023-04-17T01:45:21.252Z,101541.06
2023-04-17T01:50:24.942Z,101536.34
2023-04-17T01:55:30.222Z,101532.16
2023-04-17T02:00:33.888Z,101530.34
2023-04-17T02:05:37.493Z,101525.50
2023-04-17T02:10:43.053Z,101534.91
2023-04-17T02:15:46.716Z,101533.94
2023-04-17T02:20:50.333Z,101523.31
2023-04-17T02:25:55.621Z,101524.38
2023-04-17T02:30:59.764Z,101528.72
2023-04-17T02:36:03.572Z,101522.63
2023-04-17T02:41:08.892Z,101517.84
2023-04-17T02:46:12.661Z,101521.53
2023-04-17T02:51:16.372Z,101517.22
2023-04-17T02:56:21.625Z,101529.69
2023-04-17T03:01:25.361Z,101527.38
2023-04-17T03:06:29.157Z,101529.44
2023-04-17T03:11:34.556Z,101540.13
2023-04-17T03:16:38.251Z,101537.06
2023-04-17T03:21:41.932Z,101535.66
2023-04-17T03:26:48.087Z,101533.94
2023-04-17T03:31:51.047Z,101534.81
2023-04-17T03:36:54.676Z,101534.34
2023-04-17T03:41:59.916Z,101554.44
2023-04-17T03:47:03.576Z,101539.41
2023-04-17T03:52:07.199Z,101542.88
2023-04-17T03:57:12.422Z,101541.28
2023-04-17T04:02:16.127Z,101563.91
2023-04-17T04:07:19.860Z,101559.63
2023-04-17T04:12:25.639Z,101552.69
2023-04-17T04:17:29.282Z,101561.13
2023-04-17T04:22:32.908Z,101561.25
2023-04-17T04:27:39.121Z,101577.69
2023-04-17T04:32:42.801Z,101559.19
2023-04-17T04:37:46.431Z,101588.00
2023-04-17T04:42:51.784Z,101579.16
2023-04-17T04:47:55.492Z,101582.69
2023-04-17T04:52:59.094Z,101589.78
2023-04-17T04:58:05.204Z,101592.78
2023-04-17T05:03:09.012Z,101575.69
2023-04-17T05:08:12.800Z,101575.88
2023-04-17T05:13:18.086Z,101583.53
2023-04-17T05:18:21.678Z,101571.91
2023-04-17T05:23:25.319Z,101562.31
2023-04-17T05:28:30.572Z,101557.09
2023-04-17T05:33:34.156Z,101548.28
2023-04-17T05:38:37.795Z,101547.28
2023-04-17T05:43:43.071Z,101550.75
2023-04-17T05:48:46.695Z,101541.00
2023-04-17T05:53:50.276Z,101538.38
2023-04-17T05:58:55.550Z,101539.22
2023-04-17T06:04:00.002Z,101526.19
2023-04-17T06:09:04.492Z,101534.22
2023-04-17T06:14:09.797Z,101525.63
2023-04-17T06:19:13.627Z,101518.50
2023-04-17T06:24:17.577Z,101517.59
2023-04-17T06:29:22.832Z,101508.00
2023-04-17T06:34:26.511Z,101515.09
2023-04-17T06:39:30.112Z,101515.00
2023-04-17T06:44:35.499Z,101506.44
2023-04-17T06:49:39.113Z,101508.34
2023-04-17T06:54:42.720Z,101510.97
2023-04-17T06:59:48.071Z,101510.16
2023-04-17T07:04:51.759Z,101511.34
2023-04-17T07:09:55.419Z,101502.94
2023-04-17T07:15:00.982Z,101516.66
2023-04-17T07:20:05.949Z,101524.81
2023-04-17T07:25:09.992Z,101540.72
2023-04-17T07:30:15.440Z,101543.09
2023-04-17T07:35:19.243Z,101534.13
2023-04-17T07:40:23.063Z,101529.69
2023-04-17T07:45:29.254Z,101531.56
2023-04-17T07:50:33.634Z,101522.69
2023-04-17T07:55:37.303Z,101519.28
2023-04-17T08:00:42.663Z,101512.25
2023-04-17T08:05:46.323Z,101517.50
2023-04-17T08:10:49.912Z,101507.91
2023-04-17T08:15:55.172Z,101507.88
2023-04-17T08:20:58.878Z,101514.16
2023-04-17T08:26:02.498Z,101515.97
2023-04-17T08:31:08.882Z,101508.03
2023-04-17T08:36:12.534Z,101496.59
2023-04-17T08:41:21.495Z,101493.13
2023-04-17T08:46:27.767Z,101491.50
2023-04-17T08:51:31.513Z,101487.13
2023-04-17T08:56:35.173Z,101474.13
2023-04-17T09:01:40.461Z,101474.19
2023-04-17T09:06:53.394Z,101483.06
2023-04-17T09:12:20.737Z,101477.84
2023-04-17T09:17:35.556Z,101470.16
2023-04-17T09:22:39.983Z,101468.47
2023-04-17T09:27:43.622Z,101459.84
2023-04-17T09:32:48.955Z,101464.28
2023-04-17T09:37:53.672Z,101453.88
2023-04-17T09:42:59.376Z,101444.41
2023-04-17T09:48:07.487Z,101430.53
2023-04-17T09:53:11.253Z,101430.59
2023-04-17T09:58:15.221Z,101426.34
2023-04-17T10:03:21.578Z,101427.34
2023-04-17T10:08:25.550Z,101427.56
2023-04-17T10:13:29.902Z,101430.34
2023-04-17T10:18:35.177Z,101423.59
2023-04-17T10:23:38.785Z,101413.28
2023-04-17T10:28:49.543Z,101408.00
2023-04-17T10:33:55.154Z,101397.50
2023-04-17T10:39:14.272Z,101408.06
2023-04-17T10:44:19.671Z,101401.19
2023-04-17T10:49:25.037Z,101409.00
2023-04-17T10:54:32.926Z,101409.03
2023-04-17T10:59:36.564Z,101415.19
2023-04-17T11:04:42.013Z,101422.06
2023-04-17T11:09:52.673Z,101408.22
2023-04-17T11:15:03.733Z,101408.25
2023-04-17T11:20:10.240Z,101410.00
2023-04-17T11:25:27.626Z,101410.00
2023-04-17T11:30:33.009Z,101412.75
2023-04-17T11:35:40.296Z,101399.78
2023-04-17T11:40:44.988Z,101392.91
2023-04-17T11:45:50.533Z,101393.28
2023-04-17T11:50:58.548Z,101387.22
2023-04-17T11:56:15.852Z,101395.97
2023-04-17T12:01:21.230Z,101389.09
2023-04-17T12:06:37.270Z,101396.13
2023-04-17T12:11:40.893Z,101398.78
2023-04-17T12:16:44.580Z,101395.19
2023-04-17T12:21:49.913Z,101401.41
2023-04-17T12:26:53.617Z,101404.91
2023-04-17T12:31:57.344Z,101403.22
2023-04-17T12:37:03.603Z,101392.81
2023-04-17T12:42:06.465Z,101386.78
2023-04-17T12:47:10.083Z,101389.53
2023-04-17T12:52:15.341Z,101384.38
2023-04-17T12:57:19.063Z,101381.03
2023-04-17T13:02:23.196Z,101387.19
2023-04-17T13:07:29.576Z,101393.22
2023-04-17T13:12:32.398Z,101391.53
2023-04-17T13:17:36.998Z,101400.22
2023-04-17T13:22:42.292Z,101405.50
2023-04-17T13:27:45.910Z,101395.09
2023-04-17T13:32:50.256Z,101403.84
2023-04-17T13:37:55.572Z,101406.44
2023-04-17T13:42:59.185Z,101404.66
2023-04-17T13:48:02.824Z,101421.91
2023-04-17T13:53:09.479Z,101424.34
2023-04-17T13:58:14.682Z,101422.44
2023-04-17T14:03:18.444Z,101418.94
2023-04-17T14:08:23.925Z,101439.72
2023-04-17T14:13:27.646Z,101446.69
2023-04-17T14:18:31.381Z,101444.00
2023-04-17T14:23:36.683Z,101457.72
2023-04-17T14:28:40.563Z,101462.84
2023-04-17T14:33:44.169Z,101460.22
2023-04-17T14:38:50.445Z,101460.16
2023-04-17T14:43:53.293Z,101467.66
2023-04-17T14:48:57.049Z,101470.94
2023-04-17T14:54:02.367Z,101474.00
2023-04-17T14:59:06.029Z,101479.88
2023-04-17T15:04:09.782Z,101481.47
2023-04-17T15:09:15.468Z,101487.53
2023-04-17T15:14:19.207Z,101493.28
2023-04-17T15:19:22.835Z,101491.47
2023-04-17T15:24:28.114Z,101497.31
2023-04-17T15:29:31.807Z,101494.19
2023-04-17T15:34:35.547Z,101493.56
2023-04-17T15:39:41.499Z,101497.06
2023-04-17T15:44:45.077Z,101506.34
2023-04-17T15:49:48.703Z,101495.88
2023-04-17T15:54:54.016Z,101510.50
2023-04-17T15:59:57.726Z,101502.75
2023-04-17T16:05:01.750Z,101494.28
2023-04-17T16:10:08.425Z,101489.22
2023-04-17T16:15:12.643Z,101503.63
2023-04-17T16:20:16.397Z,101492.25
2023-04-17T16:25:21.670Z,101494.06
2023-04-17T16:30:25.257Z,101501.06
2023-04-17T16:35:29.110Z,101487.94
2023-04-17T16:40:34.415Z,101482.84
2023-04-17T16:45:38.179Z,101487.41
2023-04-17T16:50:41.849Z,101498.13
2023-04-17T16:55:47.183Z,101499.81
2023-04-17T17:00:50.918Z,101506.84
2023-04-17T17:05:54.680Z,101495.84
2023-04-17T17:11:00.036Z,101496.72
2023-04-17T17:16:03.718Z,101482.09
2023-04-17T17:21:07.448Z,101484.09
2023-04-17T17:26:12.759Z,101491.06
2023-04-17T17:31:16.401Z,101491.78
2023-04-17T17:36:20.069Z,101484.09
2023-04-17T17:41:25.399Z,101496.94
2023-04-17T17:46:29.203Z,101485.56
2023-04-17T17:51:32.951Z,101491.97
2023-04-17T17:56:38.227Z,101481.69
2023-04-17T18:01:41.906Z,101485.63
2023-04-17T18:06:45.582Z,101493.16
2023-04-17T18:11:50.842Z,101483.66
2023-04-17T18:16:54.502Z,101484.53
2023-04-17T18:21:58.138Z,101491.25
2023-04-17T18:27:03.646Z,101479.41
2023-04-17T18:32:07.327Z,101480.13
2023-04-17T18:37:10.951Z,101478.72
2023-04-17T18:42:16.243Z,101472.44
2023-04-17T18:47:19.848Z,101478.28
2023-04-17T18:52:23.700Z,101473.75
2023-04-17T18:57:29.024Z,101468.66
2023-04-17T19:02:32.834Z,101453.19
2023-04-17T19:07:36.521Z,101468.50
2023-04-17T19:12:41.782Z,101467.06
2023-04-17T19:17:45.385Z,101469.91
2023-04-17T19:22:49.034Z,101476.47
2023-04-17T19:27:54.362Z,101471.19
2023-04-17T19:32:58.138Z,101457.72
2023-04-17T19:38:01.853Z,101447.97
2023-04-17T19:43:08.650Z,101441.19
2023-04-17T19:48:13.010Z,101445.91
2023-04-17T19:53:16.603Z,101427.06
2023-04-17T19:58:21.864Z,101427.88
2023-04-17T20:03:26.574Z,101420.41
2023-04-17T20:08:30.432Z,101414.38
2023-04-17T20:13:35.704Z,101402.16
2023-04-17T20:18:39.327Z,101392.13
2023-04-17T20:23:42.963Z,101393.84
2023-04-17T20:28:48.240Z,101390.72
2023-04-17T20:33:51.893Z,101397.44
2023-04-17T20:38:55.528Z,101393.41
2023-04-17T20:44:01.570Z,101372.81
2023-04-17T20:49:05.204Z,101368.88
2023-04-17T20:54:08.809Z,101370.94
2023-04-17T20:59:14.075Z,101375.81
2023-04-17T21:04:17.893Z,101363.34
2023-04-17T21:09:21.613Z,101366.31
2023-04-17T21:14:26.893Z,101366.84
2023-04-17T21:19:30.500Z,101356.72
2023-04-17T21:24:34.363Z,101345.03
2023-04-17T21:29:39.576Z,101335.16
2023-04-17T21:34:43.172Z,101335.16
2023-04-17T21:39:46.762Z,101328.22
2023-04-17T21:44:52.034Z,101320.69
2023-04-17T21:49:55.641Z,101327.97
2023-04-17T21:54:59.246Z,101325.06
2023-04-17T22:00:05.867Z,101317.13
2023-04-17T22:05:09.902Z,101318.44
2023-04-17T22:10:13.509Z,101319.03
2023-04-17T22:15:18.892Z,101319.41
2023-04-17T22:20:22.483Z,101299.22
2023-04-17T22:25:26.103Z,101295.50
2023-04-17T22:30:31.383Z,101297.19
2023-04-17T22:35:35.096Z,101299.81
2023-04-17T22:40:38.712Z,101289.53
2023-04-17T22:46:09.182Z,101293.19
2023-04-17T22:51:12.859Z,101304.91
2023-04-17T22:56:16.461Z,101284.44
2023-04-17T23:01:21.750Z,101290.84
2023-04-17T23:06:25.416Z,101276.41
2023-04-17T23:11:31.569Z,101284.41
2023-04-17T23:16:36.857Z,101265.78
2023-04-17T23:21:40.472Z,101272.09
2023-04-17T23:26:44.075Z,101248.81
2023-04-17T23:31:49.463Z,101251.84
2023-04-17T23:36:53.138Z,101235.53
2023-04-17T23:41:56.723Z,101231.13
2023-04-17T23:47:04.171Z,101228.72
2023-04-17T23:52:07.979Z,101226.75
2023-04-17T23:57:11.585Z,101231.38
